createdAt,value
2022-12-29T00:00:01.494Z,13.01
2022-12-29T00:02:28.358Z,13.02
2022-12-29T00:04:55.128Z,13.00
2022-12-29T00:07:21.864Z,12.94
2022-12-29T00:09:48.552Z,12.95
2022-12-29T00:12:15.380Z,12.96
2022-12-29T00:15:00.580Z,12.99
2022-12-29T00:17:27.490Z,12.95
2022-12-29T00:20:12.816Z,12.96
2022-12-29T00:22:59.335Z,13.00
2022-12-29T00:25:44.647Z,12.99
2022-12-29T00:28:29.878Z,12.96
2022-12-29T00:31:21.934Z,12.96
2022-12-29T00:34:07.704Z,12.96
2022-12-29T00:36:38.335Z,12.90
2022-12-29T00:39:32.575Z,12.93
2022-12-29T00:42:26.834Z,12.86
2022-12-29T00:44:53.697Z,12.76
2022-12-29T00:47:20.357Z,12.79
2022-12-29T00:49:47.117Z,12.84
2022-12-29T00:52:14.750Z,12.83
2022-12-29T00:54:42.338Z,12.83
2022-12-29T00:57:10.501Z,12.79
2022-12-29T00:59:38.693Z,12.71
2022-12-29T01:02:05.593Z,12.67
2022-12-29T01:04:32.566Z,12.66
2022-12-29T01:06:59.777Z,12.68
2022-12-29T01:09:45.003Z,12.71
2022-12-29T01:12:12.510Z,12.69
2022-12-29T01:14:39.846Z,12.69
2022-12-29T01:17:07.009Z,12.66
2022-12-29T01:19:34.374Z,12.59
2022-12-29T01:22:01.232Z,12.62
2022-12-29T01:24:28.621Z,12.63
2022-12-29T01:26:55.659Z,12.62
2022-12-29T01:29:22.898Z,12.52
2022-12-29T01:31:51.023Z,12.53
2022-12-29T01:34:18.761Z,12.53
2022-12-29T01:36:45.569Z,12.54
2022-12-29T01:39:13.305Z,12.52
2022-12-29T01:41:41.521Z,12.51
2022-12-29T01:44:40.691Z,12.59
2022-12-29T01:47:08.547Z,12.58
2022-12-29T01:49:35.781Z,12.54
2022-12-29T01:52:06.209Z,12.57
2022-12-29T01:54:39.801Z,12.51
2022-12-29T01:57:10.181Z,12.46
2022-12-29T01:59:41.282Z,12.44
2022-12-29T02:02:08.622Z,12.44
2022-12-29T02:04:36.237Z,12.46
2022-12-29T02:07:05.730Z,12.54
2022-12-29T02:09:32.461Z,12.53
2022-12-29T02:11:59.531Z,12.51
2022-12-29T02:14:26.358Z,12.51
2022-12-29T02:17:08.843Z,12.47
2022-12-29T02:19:54.307Z,12.49
2022-12-29T02:22:43.080Z,12.53
2022-12-29T02:25:19.068Z,12.61
2022-12-29T02:27:56.588Z,12.55
2022-12-29T02:30:28.234Z,12.56
2022-12-29T02:33:20.959Z,12.48
2022-12-29T02:35:55.878Z,12.53
2022-12-29T02:38:28.280Z,12.53
2022-12-29T02:40:55.025Z,12.53
2022-12-29T02:43:38.393Z,12.54
2022-12-29T02:46:14.386Z,12.56
2022-12-29T02:49:02.875Z,12.59
2022-12-29T02:51:45.085Z,12.55
2022-12-29T02:54:31.011Z,12.54
2022-12-29T02:56:57.798Z,12.60
2022-12-29T02:59:24.799Z,12.62
2022-12-29T03:02:23.907Z,12.62
2022-12-29T03:05:04.856Z,12.62
2022-12-29T03:07:43.555Z,12.60
2022-12-29T03:10:38.368Z,12.62
2022-12-29T03:13:55.079Z,12.66
2022-12-29T03:16:48.914Z,12.70
2022-12-29T03:19:49.005Z,12.72
2022-12-29T03:22:29.106Z,12.75
2022-12-29T03:25:23.726Z,12.72
2022-12-29T03:27:54.629Z,12.73
2022-12-29T03:30:21.800Z,12.71
2022-12-29T03:32:56.028Z,12.71
2022-12-29T03:35:27.254Z,12.74
2022-12-29T03:38:15.955Z,12.75
2022-12-29T03:40:48.718Z,12.75
2022-12-29T03:43:15.960Z,12.73
2022-12-29T03:45:42.791Z,12.72
2022-12-29T03:48:10.107Z,12.74
2022-12-29T03:50:40.852Z,12.78
2022-12-29T03:53:08.027Z,12.78
2022-12-29T03:55:34.786Z,12.82
2022-12-29T03:58:01.844Z,12.88
2022-12-29T04:00:54.744Z,12.91
2022-12-29T04:03:21.848Z,12.89
2022-12-29T04:05:48.653Z,12.91
2022-12-29T04:08:15.631Z,12.88
2022-12-29T04:10:42.938Z,12.89
2022-12-29T04:13:09.754Z,12.90
2022-12-29T04:15:36.639Z,12.91
2022-12-29T04:18:03.535Z,12.90
2022-12-29T04:20:48.862Z,12.97
2022-12-29T04:23:15.916Z,13.01
2022-12-29T04:25:46.220Z,13.03
2022-12-29T04:28:14.975Z,13.04
2022-12-29T04:30:50.753Z,13.09
2022-12-29T04:33:26.506Z,13.09
2022-12-29T04:35:55.018Z,13.09
2022-12-29T04:38:24.082Z,13.07
2022-12-29T04:40:52.436Z,13.09
2022-12-29T04:43:23.269Z,13.12
2022-12-29T04:46:08.803Z,13.10
2022-12-29T04:48:43.632Z,13.03
2022-12-29T04:51:33.595Z,13.02
2022-12-29T04:54:00.405Z,13.00
2022-12-29T04:56:31.952Z,12.99
2022-12-29T04:58:58.773Z,12.98
2022-12-29T05:01:25.584Z,13.04
2022-12-29T05:03:53.102Z,13.13
2022-12-29T05:06:20.276Z,13.19
2022-12-29T05:08:47.246Z,13.22
2022-12-29T05:11:14.987Z,13.21
2022-12-29T05:13:46.689Z,13.25
2022-12-29T05:16:14.251Z,13.28
2022-12-29T05:18:41.504Z,13.31
2022-12-29T05:21:08.885Z,13.30
2022-12-29T05:23:35.763Z,13.26
2022-12-29T05:26:06.046Z,13.29
2022-12-29T05:28:48.838Z,13.30
2022-12-29T05:31:19.312Z,13.38
2022-12-29T05:33:46.557Z,13.36
2022-12-29T05:36:13.500Z,13.39
2022-12-29T05:38:45.846Z,13.40
2022-12-29T05:41:13.445Z,13.40
2022-12-29T05:44:00.394Z,13.44
2022-12-29T05:46:49.290Z,13.43
2022-12-29T05:49:16.863Z,13.43
2022-12-29T05:52:01.996Z,13.44
2022-12-29T05:54:29.561Z,13.46
2022-12-29T05:56:58.544Z,13.45
2022-12-29T05:59:25.426Z,13.47
2022-12-29T06:01:54.034Z,13.46
2022-12-29T06:04:21.011Z,13.45
2022-12-29T06:06:48.282Z,13.43
2022-12-29T06:09:24.829Z,13.42
2022-12-29T06:11:53.679Z,13.47
2022-12-29T06:14:20.316Z,13.47
2022-12-29T06:16:47.934Z,13.42
2022-12-29T06:19:14.676Z,13.39
2022-12-29T06:21:41.451Z,13.34
2022-12-29T06:24:09.695Z,13.31
2022-12-29T06:26:38.038Z,13.28
2022-12-29T06:29:04.738Z,13.27
2022-12-29T06:31:31.832Z,13.29
2022-12-29T06:34:00.354Z,13.28
2022-12-29T06:36:30.393Z,13.31
2022-12-29T06:38:57.116Z,13.28
2022-12-29T06:41:29.981Z,13.30
2022-12-29T06:44:22.740Z,13.33
2022-12-29T06:46:58.555Z,13.27
2022-12-29T06:49:25.280Z,13.25
2022-12-29T06:51:52.060Z,13.28
2022-12-29T06:54:18.887Z,13.31
2022-12-29T06:56:45.600Z,13.36
2022-12-29T06:59:12.445Z,13.35
2022-12-29T07:01:39.250Z,13.34
2022-12-29T07:04:06.237Z,13.29
2022-12-29T07:06:32.929Z,13.23
2022-12-29T07:08:59.773Z,13.20
2022-12-29T07:11:26.740Z,13.23
2022-12-29T07:13:53.494Z,13.28
2022-12-29T07:16:21.235Z,13.30
2022-12-29T07:18:48.041Z,13.30
2022-12-29T07:21:14.710Z,13.30
2022-12-29T07:23:41.956Z,13.30
2022-12-29T07:26:12.253Z,13.32
2022-12-29T07:28:39.672Z,13.37
2022-12-29T07:31:07.405Z,13.32
2022-12-29T07:33:34.275Z,13.24
2022-12-29T07:36:01.170Z,13.18
2022-12-29T07:38:27.873Z,13.15
2022-12-29T07:40:58.078Z,13.17
2022-12-29T07:43:24.961Z,13.23
2022-12-29T07:46:53.455Z,13.28
2022-12-29T07:48:58.969Z,13.35
2022-12-29T07:51:25.611Z,13.33
2022-12-29T07:53:52.372Z,13.31
2022-12-29T07:56:19.101Z,13.28
2022-12-29T07:58:45.876Z,13.32
2022-12-29T08:01:12.568Z,13.38
2022-12-29T08:03:42.306Z,13.39
2022-12-29T08:06:12.942Z,13.43
2022-12-29T08:08:39.585Z,13.51
2022-12-29T08:11:06.277Z,13.43
2022-12-29T08:13:33.734Z,13.40
2022-12-29T08:16:00.884Z,13.42
2022-12-29T08:18:27.671Z,13.45
2022-12-29T08:20:55.863Z,13.45
2022-12-29T08:23:22.867Z,13.43
2022-12-29T08:25:58.433Z,13.38
2022-12-29T08:28:25.223Z,13.40
2022-12-29T08:30:52.031Z,13.31
2022-12-29T08:33:19.084Z,13.32
2022-12-29T08:35:45.936Z,13.32
2022-12-29T08:38:12.794Z,13.37
2022-12-29T08:40:39.476Z,13.44
2022-12-29T08:43:06.336Z,13.45
2022-12-29T08:45:33.337Z,13.47
2022-12-29T08:48:00.151Z,13.43
2022-12-29T08:50:27.011Z,13.38
2022-12-29T08:52:53.748Z,13.37
2022-12-29T08:55:20.459Z,13.40
2022-12-29T08:57:47.691Z,13.41
2022-12-29T09:00:17.665Z,13.37
2022-12-29T09:02:45.203Z,13.33
2022-12-29T09:05:12.122Z,13.31
2022-12-29T09:07:39.391Z,13.29
2022-12-29T09:10:06.381Z,13.34
2022-12-29T09:12:36.373Z,13.38
2022-12-29T09:15:04.382Z,13.39
2022-12-29T09:17:46.608Z,13.42
2022-12-29T09:20:15.951Z,13.48
2022-12-29T09:22:43.962Z,13.47
2022-12-29T09:25:11.419Z,13.47
2022-12-29T09:27:38.401Z,13.50
2022-12-29T09:30:07.468Z,13.52
2022-12-29T09:32:36.852Z,13.56
2022-12-29T09:35:06.104Z,13.57
2022-12-29T09:37:32.940Z,13.52
2022-12-29T09:39:59.944Z,13.50
2022-12-29T09:42:38.570Z,13.47
2022-12-29T09:45:21.686Z,13.50
2022-12-29T09:47:48.564Z,13.49
2022-12-29T09:50:54.452Z,13.44
2022-12-29T09:53:31.204Z,13.34
2022-12-29T09:56:01.468Z,13.28
2022-12-29T09:58:50.019Z,13.25
2022-12-29T10:01:35.020Z,13.22
2022-12-29T10:04:08.906Z,13.22
2022-12-29T10:06:56.468Z,13.17
2022-12-29T10:09:32.640Z,13.10
2022-12-29T10:12:02.313Z,13.10
2022-12-29T10:15:04.033Z,13.15
2022-12-29T10:18:15.828Z,13.18
2022-12-29T10:20:52.900Z,13.22
2022-12-29T10:23:36.557Z,13.24
2022-12-29T10:26:04.180Z,13.20
2022-12-29T10:28:34.567Z,13.14
2022-12-29T10:31:08.686Z,13.15
2022-12-29T10:33:40.609Z,13.13
2022-12-29T10:36:40.515Z,13.16
2022-12-29T10:39:31.487Z,13.17
2022-12-29T10:42:09.907Z,13.18
2022-12-29T10:44:36.858Z,13.21
2022-12-29T10:47:19.006Z,13.21
2022-12-29T10:49:48.463Z,13.21
2022-12-29T10:52:17.405Z,13.24
2022-12-29T10:54:54.382Z,13.21
2022-12-29T10:57:36.289Z,13.24
2022-12-29T11:00:13.472Z,13.29
2022-12-29T11:03:08.256Z,13.30
2022-12-29T11:06:12.227Z,13.32
2022-12-29T11:09:14.037Z,13.30
2022-12-29T11:11:40.812Z,13.33
2022-12-29T11:14:22.852Z,13.33
2022-12-29T11:16:59.040Z,13.39
2022-12-29T11:19:39.060Z,13.44
2022-12-29T11:22:21.545Z,13.45
2022-12-29T11:24:48.690Z,13.54
2022-12-29T11:27:26.821Z,13.47
2022-12-29T11:29:54.761Z,13.40
2022-12-29T11:32:29.090Z,13.38
2022-12-29T11:34:58.767Z,13.40
2022-12-29T11:37:30.057Z,13.40
2022-12-29T11:39:57.840Z,13.46
2022-12-29T11:42:43.126Z,13.47
2022-12-29T11:45:17.470Z,13.43
2022-12-29T11:47:46.735Z,13.37
2022-12-29T11:50:20.322Z,13.28
2022-12-29T11:52:47.354Z,13.22
2022-12-29T11:55:23.010Z,13.11
2022-12-29T11:57:51.314Z,13.11
2022-12-29T12:00:20.997Z,13.09
2022-12-29T12:03:02.287Z,13.11
2022-12-29T12:05:46.121Z,13.14
2022-12-29T12:08:33.127Z,13.18
2022-12-29T12:11:07.631Z,13.21
2022-12-29T12:14:12.148Z,13.17
2022-12-29T12:17:24.608Z,13.15
2022-12-29T12:20:06.064Z,13.14
2022-12-29T12:22:36.798Z,13.12
2022-12-29T12:25:10.769Z,13.14
2022-12-29T12:27:42.562Z,13.17
2022-12-29T12:30:12.182Z,13.16
2022-12-29T12:32:44.516Z,13.10
2022-12-29T12:35:27.374Z,13.11
2022-12-29T12:38:14.321Z,13.17
2022-12-29T12:40:50.051Z,13.20
2022-12-29T12:43:58.227Z,13.19
2022-12-29T12:46:37.310Z,13.19
2022-12-29T12:49:28.865Z,13.25
2022-12-29T12:52:07.516Z,13.27
2022-12-29T12:54:34.180Z,13.28
2022-12-29T12:57:14.181Z,13.28
2022-12-29T12:59:48.155Z,13.30
2022-12-29T13:02:39.628Z,13.28
2022-12-29T13:05:28.557Z,13.32
2022-12-29T13:08:19.550Z,13.34
2022-12-29T13:10:53.490Z,13.31
2022-12-29T13:13:47.780Z,13.31
2022-12-29T13:16:27.235Z,13.33
2022-12-29T13:18:59.979Z,13.27
2022-12-29T13:21:35.972Z,13.19
2022-12-29T13:24:11.964Z,13.13
2022-12-29T13:26:49.265Z,12.98
2022-12-29T13:29:31.620Z,12.92
2022-12-29T13:32:25.993Z,12.78
2022-12-29T13:34:56.217Z,12.69
2022-12-29T13:37:27.572Z,12.70
2022-12-29T13:39:59.051Z,12.72
2022-12-29T13:42:26.707Z,12.68
2022-12-29T13:45:03.841Z,12.64
2022-12-29T13:47:36.575Z,12.66
2022-12-29T13:50:05.887Z,12.64
2022-12-29T13:52:51.426Z,12.58
2022-12-29T13:55:27.383Z,12.52
2022-12-29T13:58:12.384Z,12.57
2022-12-29T14:01:08.357Z,12.62
2022-12-29T14:04:02.602Z,12.63
2022-12-29T14:06:31.429Z,12.60
2022-12-29T14:09:02.655Z,12.59
2022-12-29T14:11:49.664Z,12.58
2022-12-29T14:14:26.617Z,12.55
2022-12-29T14:16:54.069Z,12.59
2022-12-29T14:19:27.963Z,12.65
2022-12-29T14:22:05.454Z,12.65
2022-12-29T14:24:41.038Z,12.61
2022-12-29T14:27:10.679Z,12.49
2022-12-29T14:29:40.129Z,12.47
2022-12-29T14:32:21.782Z,12.50
2022-12-29T14:34:52.646Z,12.51
2022-12-29T14:37:27.529Z,12.49
2022-12-29T14:40:23.989Z,12.49
2022-12-29T14:42:52.908Z,12.36
2022-12-29T14:45:19.764Z,12.29
2022-12-29T14:47:51.392Z,12.24
2022-12-29T14:50:25.698Z,12.25
2022-12-29T14:53:04.368Z,12.28
2022-12-29T14:56:09.789Z,12.23
2022-12-29T14:58:52.948Z,12.27
2022-12-29T15:01:44.530Z,12.31
2022-12-29T15:04:18.539Z,12.35
2022-12-29T15:06:46.987Z,12.40
2022-12-29T15:09:24.547Z,12.39
2022-12-29T15:11:57.057Z,12.43
2022-12-29T15:14:39.177Z,12.45
2022-12-29T15:17:28.107Z,12.47
2022-12-29T15:19:56.090Z,12.47
2022-12-29T15:22:23.025Z,12.44
2022-12-29T15:24:52.987Z,12.48
2022-12-29T15:27:25.216Z,12.51
2022-12-29T15:30:03.077Z,12.51
2022-12-29T15:32:40.241Z,12.49
2022-12-29T15:35:24.084Z,12.42
2022-12-29T15:37:50.949Z,12.32
2022-12-29T15:40:32.301Z,12.28
2022-12-29T15:43:14.137Z,12.29
2022-12-29T15:45:41.001Z,12.32
2022-12-29T15:48:16.697Z,12.30
2022-12-29T15:50:44.173Z,12.32
2022-12-29T15:53:20.811Z,12.35
2022-12-29T15:55:48.783Z,12.39
2022-12-29T15:58:24.638Z,12.38
2022-12-29T16:00:57.936Z,12.44
2022-12-29T16:03:26.526Z,12.46
2022-12-29T16:05:55.996Z,12.43
2022-12-29T16:08:43.049Z,12.46
2022-12-29T16:11:29.087Z,12.44
2022-12-29T16:13:56.828Z,12.39
2022-12-29T16:16:36.697Z,12.39
2022-12-29T16:19:33.735Z,12.38
2022-12-29T16:22:01.950Z,12.36
2022-12-29T16:24:32.224Z,12.39
2022-12-29T16:27:21.709Z,12.45
2022-12-29T16:29:50.456Z,12.45
2022-12-29T16:32:29.064Z,12.45
2022-12-29T16:35:14.370Z,12.47
2022-12-29T16:37:41.634Z,12.46
2022-12-29T16:40:23.884Z,12.45
2022-12-29T16:42:52.488Z,12.44
2022-12-29T16:45:19.187Z,12.40
2022-12-29T16:47:50.687Z,12.41
2022-12-29T16:50:28.262Z,12.31
2022-12-29T16:52:55.256Z,12.29
2022-12-29T16:55:21.973Z,12.30
2022-12-29T16:57:50.626Z,12.30
2022-12-29T17:00:22.753Z,12.29
2022-12-29T17:02:50.599Z,12.26
2022-12-29T17:05:19.080Z,12.25
2022-12-29T17:07:46.841Z,12.27
2022-12-29T17:10:16.440Z,12.30
2022-12-29T17:12:44.660Z,12.28
2022-12-29T17:15:17.409Z,12.23
2022-12-29T17:17:47.644Z,12.17
2022-12-29T17:20:19.368Z,12.21
2022-12-29T17:22:46.712Z,12.22
2022-12-29T17:25:16.722Z,12.19
2022-12-29T17:27:56.253Z,12.17
2022-12-29T17:30:29.708Z,12.09
2022-12-29T17:33:04.896Z,11.99
2022-12-29T17:35:31.677Z,11.95
2022-12-29T17:37:58.355Z,11.95
2022-12-29T17:40:28.233Z,12.02
2022-12-29T17:42:57.404Z,12.10
2022-12-29T17:45:25.243Z,12.08
2022-12-29T17:47:51.990Z,12.04
2022-12-29T17:50:21.943Z,11.93
2022-12-29T17:52:57.417Z,11.92
2022-12-29T17:55:32.820Z,11.92
2022-12-29T17:58:16.762Z,11.99
2022-12-29T18:00:43.551Z,12.04
2022-12-29T18:03:29.513Z,11.94
2022-12-29T18:05:56.744Z,11.88
2022-12-29T18:08:23.517Z,11.92
2022-12-29T18:10:54.339Z,11.94
2022-12-29T18:13:28.989Z,11.96
2022-12-29T18:16:00.656Z,11.97
2022-12-29T18:18:28.039Z,12.01
2022-12-29T18:20:56.884Z,12.01
2022-12-29T18:23:25.809Z,12.01
2022-12-29T18:25:59.343Z,12.00
2022-12-29T18:28:26.738Z,12.01
2022-12-29T18:30:54.294Z,12.03
2022-12-29T18:33:25.024Z,12.02
2022-12-29T18:36:04.855Z,12.06
2022-12-29T18:38:31.961Z,12.11
2022-12-29T18:40:59.308Z,12.10
2022-12-29T18:43:26.221Z,12.06
2022-12-29T18:45:52.913Z,12.02
2022-12-29T18:48:20.187Z,11.99
2022-12-29T18:50:49.876Z,11.99
2022-12-29T18:53:26.582Z,12.00
2022-12-29T18:55:54.725Z,12.02
2022-12-29T18:58:21.382Z,12.01
2022-12-29T19:00:48.256Z,12.00
2022-12-29T19:03:17.796Z,11.95
2022-12-29T19:05:46.025Z,11.96
2022-12-29T19:08:13.402Z,11.97
2022-12-29T19:10:41.028Z,11.97
2022-12-29T19:13:09.688Z,11.97
2022-12-29T19:15:40.284Z,11.96
2022-12-29T19:20:56.878Z,11.96
2022-12-29T19:23:25.244Z,11.93
2022-12-29T19:25:53.220Z,11.89
2022-12-29T19:28:26.895Z,11.88
2022-12-29T19:30:57.422Z,11.89
2022-12-29T19:33:24.272Z,12.00
2022-12-29T19:35:52.185Z,11.93
2022-12-29T19:38:19.810Z,11.89
2022-12-29T19:40:48.772Z,11.87
2022-12-29T19:43:15.634Z,11.87
2022-12-29T19:45:43.793Z,11.82
2022-12-29T19:48:16.846Z,11.79
2022-12-29T19:50:44.290Z,11.83
2022-12-29T19:53:11.585Z,11.85
2022-12-29T19:55:42.433Z,11.85
2022-12-29T19:58:09.211Z,11.85
2022-12-29T20:00:35.974Z,11.83
2022-12-29T20:03:02.909Z,11.83
2022-12-29T20:05:29.576Z,11.79
2022-12-29T20:07:56.274Z,11.77
2022-12-29T20:10:22.992Z,11.75
2022-12-29T20:12:49.655Z,11.75
2022-12-29T20:15:16.351Z,11.75
2022-12-29T20:18:12.312Z,11.71
2022-12-29T20:20:30.108Z,11.70
2022-12-29T20:22:57.865Z,11.71
2022-12-29T20:28:11.532Z,11.74
2022-12-29T20:30:38.296Z,11.71
2022-12-29T20:33:08.525Z,11.69
2022-12-29T20:35:36.633Z,11.68
2022-12-29T20:38:04.057Z,11.67
2022-12-29T20:40:30.775Z,11.64
2022-12-29T20:42:57.490Z,11.66
2022-12-29T20:45:24.423Z,11.67
2022-12-29T20:47:51.167Z,11.66
2022-12-29T20:50:18.086Z,11.68
2022-12-29T20:52:44.740Z,11.65
2022-12-29T20:55:11.456Z,11.66
2022-12-29T20:58:21.930Z,11.63
2022-12-29T21:00:25.733Z,11.62
2022-12-29T21:02:53.141Z,11.62
2022-12-29T21:05:24.504Z,11.61
2022-12-29T21:07:52.991Z,11.59
2022-12-29T21:10:20.085Z,11.61
2022-12-29T21:12:47.751Z,11.59
2022-12-29T21:15:15.662Z,11.60
2022-12-29T21:17:43.601Z,11.57
2022-12-29T21:20:19.999Z,11.57
2022-12-29T21:22:47.844Z,11.57
2022-12-29T21:25:14.733Z,11.57
2022-12-29T21:27:44.639Z,11.60
2022-12-29T21:30:12.481Z,11.63
2022-12-29T21:32:39.844Z,11.62
2022-12-29T21:35:07.538Z,11.62
2022-12-29T21:37:34.756Z,11.59
2022-12-29T21:40:02.284Z,11.55
2022-12-29T21:42:29.049Z,11.52
2022-12-29T21:45:21.025Z,11.52
2022-12-29T21:48:07.405Z,11.53
2022-12-29T21:50:57.684Z,11.51
2022-12-29T21:53:37.689Z,11.54
2022-12-29T21:56:04.777Z,11.56
2022-12-29T21:59:04.078Z,11.54
2022-12-29T22:01:51.167Z,11.53
2022-12-29T22:04:38.195Z,11.51
2022-12-29T22:07:25.090Z,11.46
2022-12-29T22:10:10.673Z,11.48
2022-12-29T22:12:56.373Z,11.49
2022-12-29T22:15:23.875Z,11.53
2022-12-29T22:17:52.552Z,11.57
2022-12-29T22:20:21.655Z,11.53
2022-12-29T22:22:48.529Z,11.57
2022-12-29T22:25:15.371Z,11.60
2022-12-29T22:27:42.078Z,11.58
2022-12-29T22:30:09.118Z,11.55
2022-12-29T22:32:35.882Z,11.55
2022-12-29T22:35:07.733Z,11.55
2022-12-29T22:37:35.982Z,11.50
2022-12-29T22:40:03.863Z,11.50
2022-12-29T22:42:30.628Z,11.50
2022-12-29T22:44:57.324Z,11.48
2022-12-29T22:47:24.053Z,11.42
2022-12-29T22:49:50.747Z,11.36
2022-12-29T22:52:17.521Z,11.37
2022-12-29T22:54:44.188Z,11.35
2022-12-29T22:57:11.066Z,11.34
2022-12-29T22:59:37.916Z,11.37
2022-12-29T23:02:04.752Z,11.43
2022-12-29T23:07:18.435Z,11.44
2022-12-29T23:09:45.145Z,11.38
2022-12-29T23:12:11.868Z,11.38
2022-12-29T23:14:38.889Z,11.37
2022-12-29T23:17:05.829Z,11.39
2022-12-29T23:19:32.559Z,11.37
2022-12-29T23:21:59.299Z,11.35
2022-12-29T23:24:25.945Z,11.38
2022-12-29T23:26:52.753Z,11.34
2022-12-29T23:29:19.980Z,11.36
2022-12-29T23:31:47.634Z,11.34
2022-12-29T23:34:15.996Z,11.35
2022-12-29T23:36:43.089Z,11.34
2022-12-29T23:39:10.752Z,11.30
2022-12-29T23:41:37.653Z,11.22
2022-12-29T23:44:04.431Z,11.19
2022-12-29T23:46:31.431Z,11.15
2022-12-29T23:48:58.542Z,11.08
2022-12-29T23:51:25.420Z,11.03
2022-12-29T23:53:52.129Z,10.98
2022-12-29T23:56:21.633Z,10.93
2022-12-29T23:58:49.343Z,10.90
